Terminal Aerodrome Forecast
Issued by NWS

Home | Current Version | Previous Version | Text Only | Print | Product List | Glossary Off
Versions: 1 2 3 4 5 6 7 8 9 10 11 12 13 14 15 16

275
FTUS43 KICT 231630 AAA
TAFHUT
TAF AMD
KHUT 231630Z 2317/2412 17025G33KT P6SM BKN025
      TEMPO 2317/2320 BKN016
     FM232000 17026G35KT P6SM SCT030 BKN200=

USA.gov is the U.S. government's official web portal to all federal, state and local government web resources and services.